Dernières infos :  

13/08/2017  Mise à jour des tableaux d'analyses décadaires
02/08/2017 Mise en ligne de la synthèse climatologique de Juillet 2017 : 
CLIQUEZ ICI
01/08/2017  Mise à jour des tableaux d'analyses décadaires, mensuelles et annuelles : rubrique climatologie

31/07/2017 Vidéo du violent orage de dimanche soir 30/07 : CLIQUEZ ICI   

Si l'entête du tableau ne s'affiche pas correctement, => actualisez la page (F5 avec Internet Explorer, Chrome...).
Utilisez l'ascenseur sur la droite des lignes du tableau pour faire défiler verticalement les jours du mois.

TABLEAU DES DONNEES COMPLETES NOAA de MAI 2012

DATE TEMPERATURE
sous abri
TEMPARATURE 
au sol
VENT  et  Indice de Refroidissement Eolien  PRECIPITATIONS (en mm/m2)
et Intensité
PRESSION ATMOSPHERIQUE (en hPa) HUMIDITE de l'AIR RADIATIONS SOLAIRES (en W/m2)
Mini Moy. Maxi Mini Moy. Maxi Moyen Rafale I.R.E.
Minii
Précip. jour Cumul mois Intensité Maxi Mini Moy. Maxi Mini Moy. Maxi Pic maxi du jour Total jour
01/05/2012 6.4° 13° 18.6° 15° 32.8° 1.4km/h dir SE 12.9km/h dir N 6.5° 0 0   1013.7 1016.2 1018.2 52% 75.9% 95% 1071 64 284
02/05/2012 10.9° 12.5° 16.3° 8.9° 14.7° 32.8° 4.7km/h dir N 24.1km/h dir NNE 9.8° 9.2 9.2 13mm/h 1015.6 1016.5 1017.7 68% 83.9% 94% 1123 43 285
03/05/2012 5.7° 14.6° 23.1° 3.3° 19.4° 41.7° 2.3km/h dir SE 35.4km/h dir N 5.7° 0 9.2   1009.4 1012.8 1016.3 29% 68.4% 95% 935 89 913
04/05/2012 11.2° 16.7° 22.7° 8.9° 17.9° 28.9° 8km/h dir SSO 49.9km/h dir SO 11.2° 7.6 16.8 83.4mm/h 1002.2 1006.1 1009.5 37% 63.1% 92% 974 83 819
05/05/2012 10° 13.7° 19.7° 9.4° 14.3° 27.8° 7.4km/h dir S 43.5km/h dir SSO 8.4° 8.4 25.2 11.4mm/h 1005.1 1006.5 1008.8 52% 79% 92% 1167 52 020
06/05/2012 9.4° 13° 18.5° 7.8° 13.7° 27.8° 3.9km/h dir SSE 29km/h dir NO 9.4° 6.4 31.6 30.8mm/h 1008.5 1011 1015.6 55% 81.4% 95% 1192 59 424
07/05/2012 7.3° 13.4° 19.4° 4.4° 15.1° 27.8° 2.4km/h dir SE 16.1km/h dir NO 7.3° 0 31.6   1015.6 1017.5 1019.1 37% 69.9% 96% 1141 75 376
08/05/2012 6.9° 13.2° 18.3° 12.5° 20.6° 7.2km/h dir S 35.4km/h dir SSE 6.7° 3.4 35 2.2mm/h 1014.3 1015.3 1016.9 51% 76.9% 89% 519 26 955
09/05/2012 14.2° 18.6° 25.2° 12.8° 19.4° 31.7° 7.6km/h dir S 25.7km/h dir SSE 13.7° 2 37 6.8mm/h 1015.4 1017.2 1018.8 50% 74.1% 90% 1296 69 699
10/05/2012 15.6° 22.2° 28.9° 12.8° 23.5° 34.4° 8.4km/h dir S 30.6km/h dir SO 15.6° 0 37   1018.8 1020.2 1021.7 42% 62.2% 85% 972 85 673
11/05/2012 18.6° 24.3° 30.6° 16.7° 25.6° 36.1° 8.5km/h dir S 30.6km/h dir SSO 18.6° 0 37   1019.9 1021.6 1022.6 36% 50.2% 65% 940 91 514
12/05/2012 11.7° 15.4° 22° 10.6° 15.7° 22.8° 12.4km/h dir N 35.4km/h dir N 10° 1.2 38.2 2.2mm/h 1022.6 1027 1029.7 59% 77% 90% 838 31 165
13/05/2012 7.2° 12.9° 18.2° 6.1° 15.1° 25° 14.8km/h dir N 40.2km/h dir NNE 4.8° 0 38.2   1021.3 1024.2 1028.4 40% 62% 83% 949 96 509
14/05/2012 3.7° 12.7° 20.6° 1.1° 15° 28.3° 4.8km/h dir N 24.1km/h dir NNO 3.6° 0 38.2   1014.2 1017.8 1021.7 30% 62.1% 92% 963 95 912
15/05/2012 6.3° 11.7° 18.3° 3.9° 13.5° 26.7° 7.2km/h dir OSO 41.8km/h dir ONO 5.7° 0 38.2   1014.4 1016.3 1021.8 28% 65.4% 85% 1218 84 146
16/05/2012 4.3° 8.9° 14.2° 1.7° 10.3° 22.8° 6.8km/h dir N 35.4km/h dir NNE 4.3° 0.6 38.8 19.8mm/h 1021.7 1024.6 1026.2 39% 69.7% 93% 1303 68 114
17/05/2012 0.8° 12.2° 20.8° -1.7° 14.2° 27.8° 4.8km/h dir S 32.2km/h dir SSO 0.8° 0 38.8   1008.9 1017.4 1025 33% 58.8% 92% 1127 83 191
18/05/2012 11.4° 14.9° 18.8° 10° 14.9° 23.9° 10.8km/h dir S 48.3km/h dir S 10° 2.4 41.2 9.2mm/h 1009.1 1010.8 1012.4 45% 60% 83% 1076 40 486
19/05/2012 9.9° 15.3° 21.6° 6.7° 15.6° 29.4° 3.4km/h dir SE 25.7km/h dir SO 9.9° 2.4 43.6 21.2mm/h 1006.5 1009.4 1012.5 57% 72.6% 89% 1199 38 911
20/05/2012 12.9° 17° 23.9° 12.2° 18.7° 33.9° 3.1km/h dir SSO 24.1km/h dir SO 12.9° 1.6 45.2 5.4mm/h 1001.5 1004.5 1007.8 47% 78.1% 94% 1141 66 586
21/05/2012 11.4° 13.6° 15.9° 11.1° 13.7° 19.4° 4.3km/h dir S 19.3km/h dir ONO 11.1° 25.4 70.6 37.4mm/h 1000.6 1001.8 1004 80% 89.5% 94% 735 26 584
22/05/2012 11.8° 13.2° 14.3° 11.7° 13.3° 16.7° 5.8km/h dir NO 22.5km/h dir NNE 11.5° 17.8 88.4 14.8mm/h 1003.9 1009.1 1017.4 90% 93% 95% 299 16 092
23/05/2012 13.3° 15.6° 18.8° 12.8° 16.2° 23.3° 7.4km/h dir N 22.5km/h dir NNE 13.3° 0 88.4   1017.1 1020.3 1022.5 80% 89.9% 96% 548 27 171
24/05/2012 15.8° 19.2° 25.2° 15.6° 20.6° 31.7° 4.7km/h dir N 16.1km/h dir ONO 15.8° 0 88.4   1017.1 1020.4 1022.6 69% 85% 93% 951 51 411
25/05/2012 15° 20.2° 27.8° 13.9° 22.3° 35.6° 3.1km/h dir NO 22.5km/h dir N 15° 0 88.4   1011.9 1015 1018 53% 80.5% 96% 935 78 460
26/05/2012 15.8° 21.9° 28.7° 13.9° 24.3° 37.2° 3.4km/h dir SO 22.5km/h dir OSO 15.8° 0 88.4   1012.3 1013.6 1014.7 42% 67.3% 93% 919 91 287
27/05/2012 15.2° 20° 25.9° 13.3° 21.8° 35.6° 2.9km/h dir NO 19.3km/h dir N 15.2° 0 88.4   1013.8 1015.3 1017.1 42% 72% 91% 1157 72 246
28/05/2012 11.4° 19.3° 25.8° 10° 22.3° 33.9° 5.8km/h dir N 29km/h dir N 11.4° 0 88.4   1013.9 1015.3 1016.6 38% 66% 91% 935 97 031
29/05/2012 12.2° 19.9° 26.9° 10° 22.4° 35° 6km/h dir N 27.4km/h dir NO 12.3° 0 88.4   1013.3 1014.5 1015.3 34% 65.7% 94% 923 96 318
30/05/2012 10.7° 20.3° 28.1° 8.3° 23.1° 37.2° 2.4km/h dir N 17.7km/h dir NNO 10.8° 0 88.4   1015.2 1017.3 1019.4 34% 64.3% 92% 921 92 986
31/05/2012 14.6° 21.3° 26.9° 13.3° 23.7° 35° 2.9km/h dir NO 14.5km/h dir N 14.6° 0 88.4   1017.2 1019 1020.2 43% 66% 92% 942 84 098

RETOUR ACCUEIL


Date de création : 08/02/2014 : 16:04
Dernière modification : 09/02/2015 : 18:22
Catégorie : ARCHIVES 2002 à 2016 - ANNEES 2010 à 2019 - ANNEE 2012 - MAI 2012
Page lue 1652 fois


Réactions à cet article

Personne n'a encore laissé de commentaire.
Soyez donc le premier !